עמוד ראשי
METAR-TAF:

METAR-TAF

שדות תעופה :

בסיס חיל האוויר אינג'ירליק

בסיס חיל האוויר אינג'ירליק, טורקיה

קו רוחב: 37-00N, קו אורך: 035-25E, גובה: 73מטר

תצפית מזג אוויר נוכחית

הדו"ח נערך לפני 33דקות, בשעה 11:20 UTC
רוח 10קשר מכיוון דרום/דרום-מערב
טמפרטורת 34 צלסיוס
לחות 50%
לחץ 1004 hPa
ראות 10 קילומטר או יותר
עננים פזורים בגובה 3500רגל

METAR: LTAG 251120Z 21010KT 9999 SCT035 34/22 Q1004 NOSIG

זמן: 14:53 (11:53 UTC)

תחזית

הדו"ח נערך לפני 1 שעות ו 13דקות, בשעה 10:40 UTC
תחזית בתוקף מ 25 ב 12 UTC עד 26 ב 12 UTC
רוח 12קשר מכיוון דרום/דרום-מערב
ראות 10 קילומטר או יותר
עננים פזורים בגובה 3500רגל
יעשה מ
25 ב 16 UTC עד 25 ב 18 UTC
רוח 2קשר עם כיוונים משתנים
יעשה מ
26 ב 06 UTC עד 26 ב 08 UTC
ראות 10 קילומטר או יותר
ללא עננים שבסיסם נמוך מ 5000 רגל או קומולונימבוס

TAF: LTAG 251040Z 2512/2612 21012KT 9999 SCT035 BECMG 2516/2518 VRB02KT BECMG 2606/2608 CAVOK

תצפיות ותחזיות מזג אוויר לגבי יותר מ- 4,000 שדות תעופה ברחבי העולם. דוחות METAR ו- TAF.

התחנות הזמינות מסומנות בנקודות צהובות ואדומות על גבי המפה.

העבר את העכבר לנקודה הצבעונית על מנת לראות את שם התחנה.

לאחר מכן, לחץ כדי לראות את תוכן ואת תחזיות מזג האוויר.

כדי לשנות את המפה: לחץ על הכפתורים הירוקים עם הפלוס השחור כדי להתקרב; על הכפתור הירוק עם המקף כדי להתרחק; או בחיצים הירוקים למפות סמוכות.


METAR-TAF: